createdAt,value
2023-02-17T00:01:46.250Z,100734.09
2023-02-17T00:04:16.089Z,100730.03
2023-02-17T00:06:53.118Z,100727.19
2023-02-17T00:09:19.816Z,100727.00
2023-02-17T00:11:46.541Z,100724.03
2023-02-17T00:14:26.405Z,100721.31
2023-02-17T00:16:53.134Z,100726.09
2023-02-17T00:19:26.035Z,100726.00
2023-02-17T00:21:58.021Z,100728.66
2023-02-17T00:24:26.118Z,100719.09
2023-02-17T00:26:53.145Z,100725.28
2023-02-17T00:29:24.893Z,100718.81
2023-02-17T00:31:53.366Z,100727.59
2023-02-17T00:34:23.109Z,100724.78
2023-02-17T00:36:49.853Z,100728.13
2023-02-17T00:39:17.694Z,100728.97
2023-02-17T00:41:44.614Z,100719.41
2023-02-17T00:44:19.668Z,100724.03
2023-02-17T00:46:53.550Z,100730.94
2023-02-17T00:49:23.269Z,100739.59
2023-02-17T00:51:50.336Z,100735.91
2023-02-17T00:54:17.623Z,100742.13
2023-02-17T00:56:44.520Z,100731.09
2023-02-17T00:59:14.248Z,100739.22
2023-02-17T01:01:43.782Z,100733.91
2023-02-17T01:04:15.387Z,100732.84
2023-02-17T01:06:44.414Z,100725.34
2023-02-17T01:09:18.593Z,100726.94
2023-02-17T01:11:45.492Z,100718.63
2023-02-17T01:14:15.031Z,100720.22
2023-02-17T01:16:46.197Z,100721.09
2023-02-17T01:19:21.955Z,100725.06
2023-02-17T01:21:48.970Z,100729.28
2023-02-17T01:24:15.970Z,100718.13
2023-02-17T01:26:50.175Z,100720.75
2023-02-17T01:29:17.119Z,100723.97
2023-02-17T01:31:46.584Z,100719.50
2023-02-17T01:34:20.580Z,100707.16
2023-02-17T01:36:47.314Z,100704.72
2023-02-17T01:39:17.430Z,100695.63
2023-02-17T01:41:53.734Z,100683.66
2023-02-17T01:44:23.201Z,100675.56
2023-02-17T01:46:55.025Z,100665.25
2023-02-17T01:49:39.737Z,100663.69
2023-02-17T01:52:12.530Z,100653.22
2023-02-17T01:54:48.159Z,100649.88
2023-02-17T01:57:18.210Z,100648.16
2023-02-17T01:59:45.904Z,100642.56
2023-02-17T02:02:12.811Z,100639.84
2023-02-17T02:04:44.747Z,100638.47
2023-02-17T02:07:18.202Z,100633.72
2023-02-17T02:09:51.786Z,100634.97
2023-02-17T02:12:24.156Z,100629.63
2023-02-17T02:14:52.134Z,100623.34
2023-02-17T02:18:01.221Z,100623.63
2023-02-17T02:20:57.320Z,100619.44
2023-02-17T02:23:50.415Z,100617.97
2023-02-17T02:26:25.998Z,100632.59
2023-02-17T02:29:08.900Z,100624.56
2023-02-17T02:31:54.056Z,100629.38
2023-02-17T02:34:34.730Z,100615.38
2023-02-17T02:37:26.644Z,100621.44
2023-02-17T02:39:57.397Z,100617.19
2023-02-17T02:42:25.379Z,100612.66
2023-02-17T02:44:52.267Z,100618.88
2023-02-17T02:47:52.789Z,100610.94
2023-02-17T02:50:44.053Z,100607.19
2023-02-17T02:53:16.667Z,100601.91
2023-02-17T02:55:53.506Z,100606.38
2023-02-17T02:58:25.502Z,100605.59
2023-02-17T03:00:56.837Z,100585.25
2023-02-17T03:03:36.315Z,100585.75
2023-02-17T03:06:08.250Z,100572.47
2023-02-17T03:08:37.060Z,100556.38
2023-02-17T03:11:04.299Z,100557.66
2023-02-17T03:13:39.389Z,100967.41
2023-02-17T03:16:08.619Z,100954.19
2023-02-17T03:18:36.361Z,100949.78
2023-02-17T03:21:09.547Z,100951.44
2023-02-17T03:23:38.521Z,100966.72
2023-02-17T03:26:05.661Z,100980.38
2023-02-17T03:28:32.613Z,100981.09
2023-02-17T03:30:59.403Z,100984.28
2023-02-17T03:33:26.042Z,100979.81
2023-02-17T03:35:55.213Z,100969.75
2023-02-17T03:38:25.019Z,100972.72
2023-02-17T03:40:56.557Z,100963.59
2023-02-17T03:43:32.425Z,100957.75
2023-02-17T03:45:59.269Z,100956.00
2023-02-17T03:48:26.016Z,100951.97
2023-02-17T03:51:12.943Z,100960.06
2023-02-17T03:53:42.842Z,100956.44
2023-02-17T03:56:10.303Z,100969.41
2023-02-17T03:58:37.375Z,100968.38
2023-02-17T04:01:04.819Z,100964.41
2023-02-17T04:03:31.978Z,100961.19
2023-02-17T04:06:00.474Z,100954.38
2023-02-17T04:08:27.522Z,100947.81
2023-02-17T04:10:59.726Z,100944.00
2023-02-17T04:13:32.890Z,100955.69
2023-02-17T04:16:01.458Z,100954.03
2023-02-17T04:18:28.706Z,100949.84
2023-02-17T04:20:55.559Z,100951.31
2023-02-17T04:23:24.945Z,100966.25
2023-02-17T04:25:59.319Z,100973.59
2023-02-17T04:28:26.532Z,100965.28
2023-02-17T04:30:58.127Z,100961.50
2023-02-17T04:33:24.997Z,100962.00
2023-02-17T04:35:51.943Z,100943.50
2023-02-17T04:38:26.083Z,100935.75
2023-02-17T04:40:56.090Z,100932.75
2023-02-17T04:43:26.707Z,100935.84
2023-02-17T04:45:56.636Z,100922.03
2023-02-17T04:48:26.033Z,100927.19
2023-02-17T04:50:55.566Z,100919.34
2023-02-17T04:53:24.538Z,100912.00
2023-02-17T04:55:56.816Z,100911.81
2023-02-17T04:58:26.055Z,100911.28
2023-02-17T05:00:58.843Z,100902.91
2023-02-17T05:03:25.547Z,100910.97
2023-02-17T05:05:59.775Z,100890.91
2023-02-17T05:08:26.406Z,100887.03
2023-02-17T05:11:02.184Z,100892.22
2023-02-17T05:13:28.831Z,100884.69
2023-02-17T05:15:55.533Z,100895.19
2023-02-17T05:18:29.720Z,100875.69
2023-02-17T05:20:56.449Z,100873.00
2023-02-17T05:23:25.539Z,100869.13
2023-02-17T05:25:58.886Z,100854.28
2023-02-17T05:28:25.722Z,100861.94
2023-02-17T05:30:55.991Z,100864.25
2023-02-17T05:33:32.713Z,100862.91
2023-02-17T05:36:07.123Z,100871.44
2023-02-17T05:38:45.038Z,100864.25
2023-02-17T05:41:11.708Z,100859.56
2023-02-17T05:43:38.408Z,100861.03
2023-02-17T05:46:14.845Z,100856.78
2023-02-17T05:48:41.532Z,100849.97
2023-02-17T05:51:08.371Z,100830.78
2023-02-17T05:53:35.047Z,100835.63
2023-02-17T05:56:05.470Z,100831.28
2023-02-17T05:58:32.355Z,100824.59
2023-02-17T06:00:59.025Z,100831.94
2023-02-17T06:03:26.785Z,100823.50
2023-02-17T06:05:56.591Z,100806.63
2023-02-17T06:08:23.422Z,100814.53
2023-02-17T06:10:59.082Z,100810.84
2023-02-17T06:13:28.098Z,100810.41
2023-02-17T06:16:00.890Z,100806.06
2023-02-17T06:21:08.443Z,100803.56
2023-02-17T06:23:35.177Z,100792.78
2023-02-17T06:26:09.091Z,100781.66
2023-02-17T06:28:35.808Z,100778.13
2023-02-17T06:39:29.295Z,100784.50
2023-02-17T06:42:20.788Z,100782.09
2023-02-17T06:44:48.356Z,100788.28
2023-02-17T06:47:50.470Z,100774.00
2023-02-17T06:50:17.310Z,100773.53
2023-02-17T06:52:53.634Z,100767.34
2023-02-17T06:55:22.669Z,100777.97
2023-02-17T06:57:53.504Z,100762.75
2023-02-17T07:00:27.370Z,100761.00
2023-02-17T07:02:55.007Z,100732.69
2023-02-17T07:05:27.590Z,100721.16
2023-02-17T07:07:58.644Z,100700.63
2023-02-17T07:12:03.678Z,100696.28
2023-02-17T07:14:01.733Z,100685.06
2023-02-17T07:16:28.525Z,100698.31
2023-02-17T07:18:55.418Z,100679.31
2023-02-17T07:21:22.248Z,100672.59
2023-02-17T07:23:48.988Z,100652.75
2023-02-17T07:26:21.137Z,100667.31
2023-02-17T07:28:47.854Z,100659.28
2023-02-17T07:31:16.592Z,100639.81
2023-02-17T07:33:55.464Z,100629.22
2023-02-17T07:36:22.827Z,100608.47
2023-02-17T07:38:49.541Z,100598.88
2023-02-17T07:41:21.136Z,100588.81
2023-02-17T07:43:48.663Z,100588.63
2023-02-17T07:46:16.639Z,100584.66
2023-02-17T07:48:43.441Z,100592.56
2023-02-17T07:51:12.560Z,100596.19
2023-02-17T07:53:39.451Z,100607.81
2023-02-17T07:56:12.187Z,100603.38
2023-02-17T07:58:41.310Z,100595.25
2023-02-17T08:01:11.427Z,100590.16
2023-02-17T08:03:38.973Z,100578.00
2023-02-17T08:06:12.971Z,100583.25
2023-02-17T08:08:58.401Z,100598.75
2023-02-17T08:11:45.127Z,100587.03
2023-02-17T08:14:15.173Z,100581.97
2023-02-17T08:16:43.891Z,100589.72
2023-02-17T08:19:14.609Z,100574.47
2023-02-17T08:21:50.226Z,100585.94
2023-02-17T08:24:21.033Z,100579.19
2023-02-17T08:26:49.472Z,100582.72
2023-02-17T08:29:16.800Z,100580.31
2023-02-17T08:31:46.058Z,100573.31
2023-02-17T08:34:16.280Z,100578.66
2023-02-17T08:36:50.578Z,100570.09
2023-02-17T08:39:18.251Z,100579.13
2023-02-17T08:41:45.764Z,100586.31
2023-02-17T08:44:21.880Z,100569.88
2023-02-17T08:46:57.716Z,100591.91
2023-02-17T08:49:25.978Z,100566.41
2023-02-17T08:51:52.795Z,100581.19
2023-02-17T08:54:19.636Z,100555.50
2023-02-17T08:56:46.490Z,100562.44
2023-02-17T08:59:15.623Z,100557.75
2023-02-17T09:01:44.433Z,100574.03
2023-02-17T09:04:18.891Z,100593.97
2023-02-17T09:06:48.668Z,100599.66
2023-02-17T09:09:17.707Z,100599.47
2023-02-17T09:11:46.932Z,100613.66
2023-02-17T09:14:16.057Z,100610.34
2023-02-17T09:16:51.350Z,100628.06
2023-02-17T09:19:18.595Z,100622.06
2023-02-17T09:21:45.697Z,100617.19
2023-02-17T09:24:12.656Z,100621.78
2023-02-17T09:26:45.512Z,100622.59
2023-02-17T09:29:21.510Z,100612.09
2023-02-17T09:31:48.355Z,100624.88
2023-02-17T09:34:17.742Z,100610.44
2023-02-17T09:36:50.320Z,100616.41
2023-02-17T09:39:17.079Z,100623.81
2023-02-17T09:41:49.977Z,100617.31
2023-02-17T09:44:21.274Z,100617.25
2023-02-17T09:47:02.162Z,100612.78
2023-02-17T09:49:58.394Z,100615.66
2023-02-17T09:52:38.938Z,100610.09
2023-02-17T09:55:08.602Z,100613.03
2023-02-17T09:57:47.447Z,100599.47
2023-02-17T10:00:18.736Z,100579.34
2023-02-17T10:02:57.633Z,100578.31
2023-02-17T10:05:31.225Z,100579.91
2023-02-17T10:08:05.650Z,100587.50
2023-02-17T10:10:40.561Z,100584.47
2023-02-17T10:13:09.437Z,100575.03
2023-02-17T10:15:47.440Z,100563.13
2023-02-17T10:18:31.100Z,100548.91
2023-02-17T10:21:07.331Z,100564.78
2023-02-17T10:23:41.467Z,100534.47
2023-02-17T10:26:23.299Z,100532.56
2023-02-17T10:28:52.863Z,100512.81
2023-02-17T10:31:38.843Z,100500.72
2023-02-17T10:34:13.180Z,100470.44
2023-02-17T10:37:03.618Z,100460.59
2023-02-17T10:39:50.836Z,100436.50
2023-02-17T10:42:34.896Z,100406.25
2023-02-17T10:45:13.606Z,100381.56
2023-02-17T10:47:40.738Z,100360.34
2023-02-17T10:50:18.534Z,100338.31
2023-02-17T10:52:45.336Z,100297.28
2023-02-17T10:55:39.620Z,100258.16
2023-02-17T10:58:30.041Z,100233.81
2023-02-17T11:01:02.561Z,100240.84
2023-02-17T11:03:33.148Z,100239.16
2023-02-17T11:06:02.427Z,100227.41
2023-02-17T11:08:33.317Z,100224.50
2023-02-17T11:11:08.272Z,100210.88
2023-02-17T11:13:38.807Z,100220.94
2023-02-17T11:16:07.152Z,100190.56
2023-02-17T11:18:46.414Z,100179.16
2023-02-17T11:21:13.322Z,100176.78
2023-02-17T11:24:08.801Z,100183.66
2023-02-17T11:26:36.370Z,100170.19
2023-02-17T11:29:22.289Z,100156.47
2023-02-17T11:32:04.925Z,100143.00
2023-02-17T11:34:36.224Z,100146.47
2023-02-17T11:37:11.925Z,100138.50
2023-02-17T11:39:48.690Z,100150.94
2023-02-17T11:42:21.731Z,100136.84
2023-02-17T11:44:49.204Z,100127.16
2023-02-17T11:47:21.953Z,100143.59
2023-02-17T11:50:18.604Z,100137.28
2023-02-17T11:53:10.597Z,100127.06
2023-02-17T11:55:37.138Z,100136.25
2023-02-17T11:58:36.751Z,100101.78
2023-02-17T12:01:21.952Z,100088.16
2023-02-17T12:04:15.949Z,100116.84
2023-02-17T12:07:03.848Z,100118.50
2023-02-17T12:09:36.388Z,100127.25
2023-02-17T12:12:16.483Z,100135.28
2023-02-17T12:15:03.566Z,100141.09
2023-02-17T12:18:01.991Z,100129.06
2023-02-17T12:20:47.283Z,100141.59
2023-02-17T12:23:34.922Z,100146.13
2023-02-17T12:26:26.449Z,100148.16
2023-02-17T12:29:30.356Z,100148.00
2023-02-17T12:32:06.237Z,100150.09
2023-02-17T12:34:42.489Z,100150.34
2023-02-17T12:37:18.638Z,100148.28
2023-02-17T12:40:10.540Z,100131.13
2023-02-17T12:42:41.562Z,100144.97
2023-02-17T12:45:28.083Z,100131.56
2023-02-17T12:47:59.449Z,100136.50
2023-02-17T12:50:30.358Z,100135.03
2023-02-17T12:53:00.518Z,100144.97
2023-02-17T12:55:48.930Z,100149.72
2023-02-17T12:58:28.826Z,100147.66
2023-02-17T13:01:09.783Z,100127.47
2023-02-17T13:03:37.098Z,100129.94
2023-02-17T13:06:34.413Z,100144.59
2023-02-17T13:09:28.976Z,100164.41
2023-02-17T13:12:23.228Z,100165.28
2023-02-17T13:15:27.985Z,100163.63
2023-02-17T13:18:26.307Z,100165.47
2023-02-17T13:20:59.188Z,100173.75
2023-02-17T13:23:30.520Z,100178.06
2023-02-17T13:26:24.460Z,100173.59
2023-02-17T13:28:53.449Z,100199.38
2023-02-17T13:31:25.376Z,100203.72
2023-02-17T13:33:57.785Z,100219.38
2023-02-17T13:36:27.504Z,100214.44
2023-02-17T13:39:25.369Z,100228.63
2023-02-17T13:41:52.518Z,100232.97
2023-02-17T13:44:39.978Z,100239.56
2023-02-17T13:47:14.058Z,100245.97
2023-02-17T13:49:40.884Z,100268.41
2023-02-17T13:52:28.907Z,100270.47
2023-02-17T13:55:07.902Z,100280.56
2023-02-17T13:57:37.716Z,100304.47
2023-02-17T14:00:19.711Z,100326.69
2023-02-17T14:03:23.071Z,100349.53
2023-02-17T14:05:53.319Z,100381.28
2023-02-17T14:08:32.304Z,100401.44
2023-02-17T14:11:05.320Z,100425.09
2023-02-17T14:13:35.521Z,100443.66
2023-02-17T14:16:02.469Z,100459.06
2023-02-17T14:18:34.520Z,100473.06
2023-02-17T14:21:25.136Z,100496.13
2023-02-17T14:23:54.071Z,100506.44
2023-02-17T14:26:44.819Z,100507.88
2023-02-17T14:29:16.645Z,100517.97
2023-02-17T14:31:47.870Z,100528.88
2023-02-17T14:34:20.983Z,100543.69
2023-02-17T14:36:47.712Z,100547.81
2023-02-17T14:39:15.603Z,100555.03
2023-02-17T14:41:51.683Z,100552.91
2023-02-17T14:44:18.362Z,100551.75
2023-02-17T14:46:48.306Z,100560.63
2023-02-17T14:49:18.147Z,100571.91
2023-02-17T14:51:51.525Z,100569.03
2023-02-17T14:54:18.520Z,100573.63
2023-02-17T14:56:51.525Z,100573.56
2023-02-17T14:59:21.231Z,100585.28
2023-02-17T15:01:48.034Z,100584.25
2023-02-17T15:04:16.910Z,100595.59
2023-02-17T15:06:51.461Z,100585.53
2023-02-17T15:09:23.407Z,100597.09
2023-02-17T15:11:50.548Z,100590.50
2023-02-17T15:14:25.681Z,100602.69
2023-02-17T15:16:52.400Z,100604.13
2023-02-17T15:19:19.281Z,100590.09
2023-02-17T15:21:51.984Z,100592.53
2023-02-17T15:24:29.873Z,100599.47
2023-02-17T15:27:07.321Z,100603.72
2023-02-17T15:29:34.069Z,100588.03
2023-02-17T15:32:09.680Z,100585.84
2023-02-17T15:34:36.560Z,100602.38
2023-02-17T15:37:03.410Z,100605.28
2023-02-17T15:39:30.113Z,100614.56
2023-02-17T15:42:00.152Z,100614.56
2023-02-17T15:44:34.283Z,100602.19
2023-02-17T15:47:00.984Z,100614.81
2023-02-17T15:49:27.691Z,100614.97
2023-02-17T15:51:56.900Z,100630.41
2023-02-17T15:54:23.635Z,100635.13
2023-02-17T15:56:51.744Z,100625.44
2023-02-17T15:59:27.814Z,100627.09
2023-02-17T16:02:01.271Z,100634.25
2023-02-17T16:04:28.826Z,100640.19
2023-02-17T16:07:02.945Z,100632.03
2023-02-17T16:09:29.872Z,100652.56
2023-02-17T16:11:57.383Z,100655.03
2023-02-17T16:14:34.886Z,100647.22
2023-02-17T16:17:02.964Z,100667.84
2023-02-17T16:19:30.040Z,100661.97
2023-02-17T16:21:59.161Z,100669.81
2023-02-17T16:24:25.925Z,100658.09
2023-02-17T16:26:52.695Z,100671.22
2023-02-17T16:29:23.066Z,100680.72
2023-02-17T16:31:50.311Z,100684.59
2023-02-17T16:34:22.927Z,100683.97
2023-02-17T16:36:54.576Z,100683.50
2023-02-17T16:39:21.702Z,100692.81
2023-02-17T16:41:51.811Z,100683.59
2023-02-17T16:44:20.644Z,100688.56
2023-02-17T16:46:52.807Z,100688.00
2023-02-17T16:49:28.373Z,100692.34
2023-02-17T16:51:55.116Z,100677.47
2023-02-17T16:54:21.848Z,100678.94
2023-02-17T16:56:54.460Z,100678.34
2023-02-17T16:59:23.382Z,100678.56
2023-02-17T17:01:51.221Z,100662.94
2023-02-17T17:04:26.957Z,100653.88
2023-02-17T17:06:54.426Z,100634.38
2023-02-17T17:09:23.594Z,100626.28
2023-02-17T17:11:55.603Z,100632.47
2023-02-17T17:14:22.460Z,100617.47
2023-02-17T17:16:55.344Z,100595.66
2023-02-17T17:19:25.959Z,100586.56
2023-02-17T17:21:52.952Z,100585.78
2023-02-17T17:24:19.911Z,100571.41
2023-02-17T17:26:54.850Z,100572.44
2023-02-17T17:29:21.746Z,100573.22
2023-02-17T17:31:52.085Z,100562.50
2023-02-17T17:34:19.232Z,100560.38
2023-02-17T17:36:49.388Z,100569.81
2023-02-17T17:39:25.308Z,100574.72
2023-02-17T17:42:00.378Z,100594.22
2023-02-17T17:44:28.805Z,100617.25
2023-02-17T17:46:55.797Z,100639.34
2023-02-17T17:49:28.572Z,100651.22
2023-02-17T17:51:55.331Z,100661.03
2023-02-17T17:54:22.196Z,100674.41
2023-02-17T17:56:49.050Z,100680.69
2023-02-17T17:59:18.509Z,100682.19
2023-02-17T18:01:48.329Z,100685.72
2023-02-17T18:04:22.663Z,100687.47
2023-02-17T18:06:51.867Z,100680.56
2023-02-17T18:09:32.205Z,100676.28
2023-02-17T18:12:03.982Z,100676.66
2023-02-17T18:14:30.860Z,100683.03
2023-02-17T18:16:58.399Z,100680.88
2023-02-17T18:19:25.347Z,100687.41
2023-02-17T18:21:52.821Z,100690.75
2023-02-17T18:24:19.484Z,100696.75
2023-02-17T18:26:51.978Z,100680.03
2023-02-17T18:29:19.405Z,100670.91
2023-02-17T18:31:51.765Z,100660.94
2023-02-17T18:34:18.442Z,100654.66
2023-02-17T18:36:47.455Z,100647.13
2023-02-17T18:39:24.233Z,100642.88
2023-02-17T18:41:53.758Z,100641.22
2023-02-17T18:44:20.523Z,100642.44
2023-02-17T18:46:54.400Z,100656.41
2023-02-17T18:49:21.276Z,100646.47
2023-02-17T18:51:47.985Z,100637.59
2023-02-17T18:54:17.126Z,100643.94
2023-02-17T18:56:51.463Z,100630.03
2023-02-17T18:59:18.502Z,100628.38
2023-02-17T19:01:46.888Z,100627.72
2023-02-17T19:04:21.156Z,100633.72
2023-02-17T19:06:47.867Z,100638.75
2023-02-17T19:09:29.887Z,100639.38
2023-02-17T19:11:56.841Z,100639.66
2023-02-17T19:14:23.506Z,100661.06
2023-02-17T19:16:50.207Z,100651.34
2023-02-17T19:19:19.939Z,100658.28
2023-02-17T19:21:46.676Z,100649.81
2023-02-17T19:24:31.378Z,100655.31
2023-02-17T19:26:58.067Z,100644.63
2023-02-17T19:29:24.870Z,100648.88
2023-02-17T19:31:51.724Z,100652.28
2023-02-17T19:34:20.085Z,100659.53
2023-02-17T19:36:49.276Z,100671.75
2023-02-17T19:39:18.698Z,100671.78
2023-02-17T19:41:47.734Z,100669.22
2023-02-17T19:44:20.229Z,100670.47
2023-02-17T19:46:47.252Z,100679.09
2023-02-17T19:49:19.353Z,100677.09
2023-02-17T19:51:50.161Z,100683.16
2023-02-17T19:54:19.321Z,100688.44
2023-02-17T19:56:49.467Z,100669.13
2023-02-17T19:59:19.482Z,100671.34
2023-02-17T20:01:48.832Z,100677.84
2023-02-17T20:04:15.761Z,100677.97
2023-02-17T20:06:53.211Z,100686.84
2023-02-17T20:09:22.214Z,100692.84
2023-02-17T20:11:49.542Z,100692.69
2023-02-17T20:14:19.537Z,100688.91
2023-02-17T20:16:48.371Z,100687.91
2023-02-17T20:19:15.154Z,100684.88
2023-02-17T20:21:51.991Z,100692.69
2023-02-17T20:24:18.762Z,100698.59
2023-02-17T20:26:47.087Z,100687.94
2023-02-17T20:31:55.459Z,100686.13
2023-02-17T20:34:34.101Z,100692.00
2023-02-17T20:37:01.475Z,100695.19
2023-02-17T20:39:28.856Z,100697.66
2023-02-17T20:41:56.722Z,100708.50
2023-02-17T20:44:27.709Z,100698.00
2023-02-17T20:46:55.686Z,100698.66
2023-02-17T20:49:22.756Z,100703.47
2023-02-17T20:51:49.960Z,100697.09
2023-02-17T20:54:26.239Z,100697.16
2023-02-17T20:56:53.372Z,100707.19
2023-02-17T20:59:28.216Z,100695.13
2023-02-17T21:01:55.061Z,100693.13
2023-02-17T21:04:21.744Z,100702.00
2023-02-17T21:06:48.534Z,100691.97
2023-02-17T21:09:18.677Z,100676.13
2023-02-17T21:11:45.882Z,100706.84
2023-02-17T21:14:19.816Z,100693.78
2023-02-17T21:16:47.626Z,100701.63
2023-02-17T21:19:16.665Z,100692.66
2023-02-17T21:21:46.292Z,100715.47
2023-02-17T21:24:20.505Z,100707.69
2023-02-17T21:26:47.225Z,100706.69
2023-02-17T21:29:19.224Z,100700.34
2023-02-17T21:31:46.034Z,100708.69
2023-02-17T21:34:20.270Z,100710.00
2023-02-17T21:36:49.902Z,100709.03
2023-02-17T21:39:19.056Z,100721.88
2023-02-17T21:41:48.063Z,100711.56
2023-02-17T21:44:33.432Z,100715.91
2023-02-17T21:47:00.124Z,100703.63
2023-02-17T21:49:26.906Z,100713.78
2023-02-17T21:51:53.608Z,100709.47
2023-02-17T21:54:20.229Z,100709.75
2023-02-17T21:56:54.582Z,100713.59
2023-02-17T21:59:21.365Z,100728.13
2023-02-17T22:01:48.260Z,100719.78
2023-02-17T22:04:14.961Z,100710.94
2023-02-17T22:06:41.968Z,100709.78
2023-02-17T22:09:09.738Z,100713.44
2023-02-17T22:11:39.585Z,100707.91
2023-02-17T22:14:10.306Z,100671.75
2023-02-17T22:16:37.641Z,100656.59
2023-02-17T22:19:06.700Z,100659.13
2023-02-17T22:21:33.563Z,100663.66
2023-02-17T22:24:01.237Z,100671.09
2023-02-17T22:26:29.110Z,100674.47
2023-02-17T22:28:58.876Z,100652.53
2023-02-17T22:31:28.027Z,100663.31
2023-02-17T22:34:00.189Z,100665.69
2023-02-17T22:36:32.570Z,100651.00
2023-02-17T22:38:59.322Z,100659.00
2023-02-17T22:41:26.054Z,100657.88
2023-02-17T22:43:58.139Z,100648.03
2023-02-17T22:46:27.114Z,100656.50
2023-02-17T22:48:54.952Z,100636.69
2023-02-17T22:51:34.011Z,100652.97
2023-02-17T22:54:01.151Z,100645.47
2023-02-17T22:56:28.306Z,100650.34
2023-02-17T22:59:03.799Z,100647.69
2023-02-17T23:01:32.754Z,100643.00
2023-02-17T23:03:59.575Z,100648.50
2023-02-17T23:06:35.236Z,100642.00
2023-02-17T23:09:02.334Z,100629.03
2023-02-17T23:12:01.169Z,100638.22
2023-02-17T23:14:30.711Z,100636.53
2023-02-17T23:17:00.236Z,100632.72
2023-02-17T23:19:27.526Z,100632.53
2023-02-17T23:21:57.150Z,100634.69
2023-02-17T23:24:25.211Z,100634.13
2023-02-17T23:26:52.675Z,100630.03
2023-02-17T23:29:19.594Z,100634.03
2023-02-17T23:31:46.617Z,100629.38
2023-02-17T23:34:22.122Z,100624.84
2023-02-17T23:36:51.396Z,100626.19
2023-02-17T23:39:23.468Z,100634.88
2023-02-17T23:41:52.698Z,100632.22
2023-02-17T23:44:19.305Z,100627.56
2023-02-17T23:46:54.907Z,100621.06
2023-02-17T23:49:21.620Z,100625.22
2023-02-17T23:51:52.361Z,100616.94
2023-02-17T23:54:22.317Z,100615.25
2023-02-17T23:56:51.230Z,100612.94
2023-02-17T23:59:17.971Z,100610.78
